sensor_id;sensor_type;location;lat;lon;timestamp;P1;durP1;ratioP1;P2;durP2;ratioP2
15055;SDS011;7626;42.674;23.284;2023-02-28T00:00:43;16.47;;;12.90;;
15055;SDS011;7626;42.674;23.284;2023-02-28T00:03:11;14.73;;;12.97;;
15055;SDS011;7626;42.674;23.284;2023-02-28T00:05:39;15.33;;;12.93;;
15055;SDS011;7626;42.674;23.284;2023-02-28T00:08:07;14.70;;;12.60;;
15055;SDS011;7626;42.674;23.284;2023-02-28T00:10:37;13.17;;;11.87;;
15055;SDS011;7626;42.674;23.284;2023-02-28T00:13:05;12.40;;;11.10;;
15055;SDS011;7626;42.674;23.284;2023-02-28T00:15:33;12.50;;;11.20;;
15055;SDS011;7626;42.674;23.284;2023-02-28T00:18:01;12.23;;;10.53;;
15055;SDS011;7626;42.674;23.284;2023-02-28T00:20:29;12.13;;;10.60;;
15055;SDS011;7626;42.674;23.284;2023-02-28T00:22:57;12.40;;;9.60;;
15055;SDS011;7626;42.674;23.284;2023-02-28T00:25:25;10.57;;;9.47;;
15055;SDS011;7626;42.674;23.284;2023-02-28T00:27:54;12.00;;;9.63;;
15055;SDS011;7626;42.674;23.284;2023-02-28T00:30:22;12.87;;;10.50;;
15055;SDS011;7626;42.674;23.284;2023-02-28T00:32:50;13.63;;;12.27;;
15055;SDS011;7626;42.674;23.284;2023-02-28T00:35:18;16.87;;;15.13;;
15055;SDS011;7626;42.674;23.284;2023-02-28T00:37:45;20.10;;;18.10;;
15055;SDS011;7626;42.674;23.284;2023-02-28T00:40:15;19.10;;;17.17;;
15055;SDS011;7626;42.674;23.284;2023-02-28T00:42:43;17.63;;;15.73;;
15055;SDS011;7626;42.674;23.284;2023-02-28T00:45:12;15.87;;;14.27;;
15055;SDS011;7626;42.674;23.284;2023-02-28T00:47:40;14.20;;;12.70;;
15055;SDS011;7626;42.674;23.284;2023-02-28T00:50:07;13.43;;;12.07;;
15055;SDS011;7626;42.674;23.284;2023-02-28T00:52:35;11.60;;;10.40;;
15055;SDS011;7626;42.674;23.284;2023-02-28T00:55:03;11.00;;;9.90;;
15055;SDS011;7626;42.674;23.284;2023-02-28T00:57:33;11.03;;;9.83;;
15055;SDS011;7626;42.674;23.284;2023-02-28T01:00:01;10.67;;;9.57;;
15055;SDS011;7626;42.674;23.284;2023-02-28T01:02:31;11.43;;;10.23;;
15055;SDS011;7626;42.674;23.284;2023-02-28T01:05:02;10.90;;;9.80;;
15055;SDS011;7626;42.674;23.284;2023-02-28T01:07:30;12.37;;;11.17;;
15055;SDS011;7626;42.674;23.284;2023-02-28T01:09:58;12.83;;;11.30;;
15055;SDS011;7626;42.674;23.284;2023-02-28T01:12:28;14.63;;;11.93;;
15055;SDS011;7626;42.674;23.284;2023-02-28T01:14:56;14.70;;;12.97;;
15055;SDS011;7626;42.674;23.284;2023-02-28T01:17:24;15.00;;;13.50;;
15055;SDS011;7626;42.674;23.284;2023-02-28T01:19:54;15.17;;;13.57;;
15055;SDS011;7626;42.674;23.284;2023-02-28T01:22:22;17.57;;;15.13;;
15055;SDS011;7626;42.674;23.284;2023-02-28T01:24:50;18.93;;;15.80;;
15055;SDS011;7626;42.674;23.284;2023-02-28T01:27:17;17.63;;;15.23;;
15055;SDS011;7626;42.674;23.284;2023-02-28T01:29:45;18.80;;;16.10;;
15055;SDS011;7626;42.674;23.284;2023-02-28T01:32:15;17.77;;;15.80;;
15055;SDS011;7626;42.674;23.284;2023-02-28T01:34:43;18.77;;;16.27;;
15055;SDS011;7626;42.674;23.284;2023-02-28T01:37:12;18.80;;;16.87;;
15055;SDS011;7626;42.674;23.284;2023-02-28T01:39:40;18.17;;;16.03;;
15055;SDS011;7626;42.674;23.284;2023-02-28T01:42:08;20.33;;;17.60;;
15055;SDS011;7626;42.674;23.284;2023-02-28T01:47:22;17.57;;;15.77;;
15055;SDS011;7626;42.674;23.284;2023-02-28T01:49:50;20.13;;;16.90;;
15055;SDS011;7626;42.674;23.284;2023-02-28T01:52:24;21.63;;;17.97;;
15055;SDS011;7626;42.674;23.284;2023-02-28T01:54:54;19.17;;;17.03;;
15055;SDS011;7626;42.674;23.284;2023-02-28T01:57:22;21.67;;;18.07;;
15055;SDS011;7626;42.674;23.284;2023-02-28T01:59:52;23.57;;;19.50;;
15055;SDS011;7626;42.674;23.284;2023-02-28T02:02:22;23.37;;;18.13;;
15055;SDS011;7626;42.674;23.284;2023-02-28T02:04:51;23.60;;;19.30;;
15055;SDS011;7626;42.674;23.284;2023-02-28T02:07:21;24.47;;;18.90;;
15055;SDS011;7626;42.674;23.284;2023-02-28T02:09:56;26.87;;;21.53;;
15055;SDS011;7626;42.674;23.284;2023-02-28T02:12:26;23.40;;;19.73;;
15055;SDS011;7626;42.674;23.284;2023-02-28T02:15:00;24.37;;;20.57;;
15055;SDS011;7626;42.674;23.284;2023-02-28T02:17:32;26.43;;;21.43;;
15055;SDS011;7626;42.674;23.284;2023-02-28T02:20:13;24.97;;;21.13;;
15055;SDS011;7626;42.674;23.284;2023-02-28T02:22:49;26.53;;;20.93;;
15055;SDS011;7626;42.674;23.284;2023-02-28T02:25:21;26.47;;;21.57;;
15055;SDS011;7626;42.674;23.284;2023-02-28T02:28:05;26.47;;;20.77;;
15055;SDS011;7626;42.674;23.284;2023-02-28T02:36:18;26.43;;;20.43;;
15055;SDS011;7626;42.674;23.284;2023-02-28T02:38:49;31.43;;;22.23;;
15055;SDS011;7626;42.674;23.284;2023-02-28T02:41:19;28.13;;;21.60;;
15055;SDS011;7626;42.674;23.284;2023-02-28T02:43:51;27.67;;;21.43;;
15055;SDS011;7626;42.674;23.284;2023-02-28T02:46:21;29.53;;;21.70;;
15055;SDS011;7626;42.674;23.284;2023-02-28T02:48:50;29.20;;;21.50;;
15055;SDS011;7626;42.674;23.284;2023-02-28T02:51:21;29.50;;;21.97;;
15055;SDS011;7626;42.674;23.284;2023-02-28T02:53:49;30.23;;;22.70;;
15055;SDS011;7626;42.674;23.284;2023-02-28T02:56:20;27.07;;;20.60;;
15055;SDS011;7626;42.674;23.284;2023-02-28T02:58:49;29.83;;;21.67;;
15055;SDS011;7626;42.674;23.284;2023-02-28T03:01:18;27.80;;;21.47;;
15055;SDS011;7626;42.674;23.284;2023-02-28T03:03:54;28.23;;;20.63;;
15055;SDS011;7626;42.674;23.284;2023-02-28T03:06:24;30.10;;;21.57;;
15055;SDS011;7626;42.674;23.284;2023-02-28T03:08:52;29.20;;;22.07;;
15055;SDS011;7626;42.674;23.284;2023-02-28T03:11:20;34.60;;;24.77;;
15055;SDS011;7626;42.674;23.284;2023-02-28T03:14:09;31.37;;;23.33;;
15055;SDS011;7626;42.674;23.284;2023-02-28T03:16:49;29.70;;;22.90;;
15055;SDS011;7626;42.674;23.284;2023-02-28T03:19:26;36.33;;;28.47;;
15055;SDS011;7626;42.674;23.284;2023-02-28T03:22:05;37.17;;;28.33;;
15055;SDS011;7626;42.674;23.284;2023-02-28T03:24:38;33.50;;;26.30;;
15055;SDS011;7626;42.674;23.284;2023-02-28T03:27:09;32.43;;;23.93;;
15055;SDS011;7626;42.674;23.284;2023-02-28T03:29:39;28.60;;;23.43;;
15055;SDS011;7626;42.674;23.284;2023-02-28T03:32:08;29.40;;;23.47;;
15055;SDS011;7626;42.674;23.284;2023-02-28T03:34:41;28.73;;;22.63;;
15055;SDS011;7626;42.674;23.284;2023-02-28T03:37:11;30.93;;;23.67;;
15055;SDS011;7626;42.674;23.284;2023-02-28T03:39:43;29.33;;;22.57;;
15055;SDS011;7626;42.674;23.284;2023-02-28T03:42:14;27.53;;;21.70;;
15055;SDS011;7626;42.674;23.284;2023-02-28T03:44:42;28.43;;;22.47;;
15055;SDS011;7626;42.674;23.284;2023-02-28T03:47:12;29.03;;;22.40;;
15055;SDS011;7626;42.674;23.284;2023-02-28T03:49:42;27.93;;;21.43;;
15055;SDS011;7626;42.674;23.284;2023-02-28T03:52:13;27.27;;;21.33;;
15055;SDS011;7626;42.674;23.284;2023-02-28T03:54:43;25.37;;;20.63;;
15055;SDS011;7626;42.674;23.284;2023-02-28T03:57:15;26.57;;;21.57;;
15055;SDS011;7626;42.674;23.284;2023-02-28T03:59:46;27.63;;;21.13;;
15055;SDS011;7626;42.674;23.284;2023-02-28T04:02:15;29.53;;;23.40;;
15055;SDS011;7626;42.674;23.284;2023-02-28T04:04:45;32.40;;;24.97;;
15055;SDS011;7626;42.674;23.284;2023-02-28T04:07:17;33.33;;;24.70;;
15055;SDS011;7626;42.674;23.284;2023-02-28T04:09:45;30.63;;;24.20;;
15055;SDS011;7626;42.674;23.284;2023-02-28T04:12:13;28.97;;;23.63;;
15055;SDS011;7626;42.674;23.284;2023-02-28T04:14:41;28.30;;;22.87;;
15055;SDS011;7626;42.674;23.284;2023-02-28T04:17:08;29.50;;;23.30;;
15055;SDS011;7626;42.674;23.284;2023-02-28T04:19:36;26.50;;;20.67;;
15055;SDS011;7626;42.674;23.284;2023-02-28T04:22:07;23.73;;;20.37;;
15055;SDS011;7626;42.674;23.284;2023-02-28T04:24:37;24.23;;;19.40;;
15055;SDS011;7626;42.674;23.284;2023-02-28T04:27:08;24.00;;;20.03;;
15055;SDS011;7626;42.674;23.284;2023-02-28T04:29:36;22.63;;;19.20;;
15055;SDS011;7626;42.674;23.284;2023-02-28T04:32:04;25.47;;;20.27;;
15055;SDS011;7626;42.674;23.284;2023-02-28T04:34:32;23.27;;;19.67;;
15055;SDS011;7626;42.674;23.284;2023-02-28T04:37:00;23.33;;;17.93;;
15055;SDS011;7626;42.674;23.284;2023-02-28T04:39:27;20.63;;;17.47;;
15055;SDS011;7626;42.674;23.284;2023-02-28T04:41:59;19.37;;;16.40;;
15055;SDS011;7626;42.674;23.284;2023-02-28T04:44:29;19.43;;;16.23;;
15055;SDS011;7626;42.674;23.284;2023-02-28T04:46:58;20.07;;;16.30;;
15055;SDS011;7626;42.674;23.284;2023-02-28T04:49:26;19.13;;;16.83;;
15055;SDS011;7626;42.674;23.284;2023-02-28T04:51:53;18.87;;;15.97;;
15055;SDS011;7626;42.674;23.284;2023-02-28T04:54:21;20.43;;;16.70;;
15055;SDS011;7626;42.674;23.284;2023-02-28T04:56:49;21.03;;;17.87;;
15055;SDS011;7626;42.674;23.284;2023-02-28T04:59:24;20.17;;;17.43;;
15055;SDS011;7626;42.674;23.284;2023-02-28T05:01:52;23.53;;;18.73;;
15055;SDS011;7626;42.674;23.284;2023-02-28T05:04:19;24.20;;;20.17;;
15055;SDS011;7626;42.674;23.284;2023-02-28T05:06:47;22.73;;;18.77;;
15055;SDS011;7626;42.674;23.284;2023-02-28T05:09:15;24.97;;;19.73;;
15055;SDS011;7626;42.674;23.284;2023-02-28T05:11:43;23.17;;;19.07;;
15055;SDS011;7626;42.674;23.284;2023-02-28T05:14:10;23.27;;;19.37;;
15055;SDS011;7626;42.674;23.284;2023-02-28T05:16:39;24.30;;;18.40;;
15055;SDS011;7626;42.674;23.284;2023-02-28T05:19:07;22.00;;;18.27;;
15055;SDS011;7626;42.674;23.284;2023-02-28T05:21:36;22.40;;;17.53;;
15055;SDS011;7626;42.674;23.284;2023-02-28T05:24:05;29.80;;;19.47;;
15055;SDS011;7626;42.674;23.284;2023-02-28T05:26:34;33.33;;;20.93;;
15055;SDS011;7626;42.674;23.284;2023-02-28T05:29:04;29.40;;;19.10;;
15055;SDS011;7626;42.674;23.284;2023-02-28T05:31:32;26.63;;;19.37;;
15055;SDS011;7626;42.674;23.284;2023-02-28T05:34:00;25.27;;;19.13;;
15055;SDS011;7626;42.674;23.284;2023-02-28T05:36:30;29.87;;;18.93;;
15055;SDS011;7626;42.674;23.284;2023-02-28T05:38:57;28.10;;;18.80;;
15055;SDS011;7626;42.674;23.284;2023-02-28T05:41:25;26.07;;;19.33;;
15055;SDS011;7626;42.674;23.284;2023-02-28T05:43:52;23.37;;;18.97;;
15055;SDS011;7626;42.674;23.284;2023-02-28T05:46:20;27.60;;;21.13;;
15055;SDS011;7626;42.674;23.284;2023-02-28T05:48:48;23.80;;;20.83;;
15055;SDS011;7626;42.674;23.284;2023-02-28T05:51:16;26.27;;;20.53;;
15055;SDS011;7626;42.674;23.284;2023-02-28T05:53:44;29.60;;;22.77;;
15055;SDS011;7626;42.674;23.284;2023-02-28T05:56:13;27.33;;;21.33;;
15055;SDS011;7626;42.674;23.284;2023-02-28T05:58:41;27.37;;;21.00;;
15055;SDS011;7626;42.674;23.284;2023-02-28T06:01:22;25.07;;;19.47;;
15055;SDS011;7626;42.674;23.284;2023-02-28T06:03:50;25.17;;;19.80;;
15055;SDS011;7626;42.674;23.284;2023-02-28T06:06:19;23.93;;;19.20;;
15055;SDS011;7626;42.674;23.284;2023-02-28T06:08:46;24.70;;;20.57;;
15055;SDS011;7626;42.674;23.284;2023-02-28T06:11:14;25.87;;;19.73;;
15055;SDS011;7626;42.674;23.284;2023-02-28T06:13:46;24.97;;;19.80;;
15055;SDS011;7626;42.674;23.284;2023-02-28T06:16:14;23.83;;;19.03;;
15055;SDS011;7626;42.674;23.284;2023-02-28T06:18:42;25.07;;;19.47;;
15055;SDS011;7626;42.674;23.284;2023-02-28T06:21:09;26.03;;;19.80;;
15055;SDS011;7626;42.674;23.284;2023-02-28T06:23:39;25.40;;;18.53;;
15055;SDS011;7626;42.674;23.284;2023-02-28T06:26:06;26.90;;;19.60;;
15055;SDS011;7626;42.674;23.284;2023-02-28T06:28:34;23.33;;;18.73;;
15055;SDS011;7626;42.674;23.284;2023-02-28T06:31:05;24.00;;;19.37;;
15055;SDS011;7626;42.674;23.284;2023-02-28T06:33:33;24.90;;;19.53;;
15055;SDS011;7626;42.674;23.284;2023-02-28T06:36:01;24.37;;;19.20;;
15055;SDS011;7626;42.674;23.284;2023-02-28T06:38:28;26.23;;;20.37;;
15055;SDS011;7626;42.674;23.284;2023-02-28T06:41:01;34.10;;;25.40;;
15055;SDS011;7626;42.674;23.284;2023-02-28T06:43:28;36.60;;;26.37;;
15055;SDS011;7626;42.674;23.284;2023-02-28T06:45:55;36.70;;;27.17;;
15055;SDS011;7626;42.674;23.284;2023-02-28T06:48:23;31.30;;;24.97;;
15055;SDS011;7626;42.674;23.284;2023-02-28T06:50:51;33.87;;;25.30;;
15055;SDS011;7626;42.674;23.284;2023-02-28T06:53:19;32.00;;;25.50;;
15055;SDS011;7626;42.674;23.284;2023-02-28T06:55:47;33.33;;;25.10;;
15055;SDS011;7626;42.674;23.284;2023-02-28T06:58:20;35.50;;;25.63;;
15055;SDS011;7626;42.674;23.284;2023-02-28T07:00:50;34.13;;;24.67;;
15055;SDS011;7626;42.674;23.284;2023-02-28T07:03:17;33.80;;;25.40;;
15055;SDS011;7626;42.674;23.284;2023-02-28T07:05:45;34.57;;;25.97;;
15055;SDS011;7626;42.674;23.284;2023-02-28T07:08:12;30.93;;;24.07;;
15055;SDS011;7626;42.674;23.284;2023-02-28T07:10:40;31.80;;;24.70;;
15055;SDS011;7626;42.674;23.284;2023-02-28T07:13:08;29.03;;;23.13;;
15055;SDS011;7626;42.674;23.284;2023-02-28T07:15:37;28.47;;;22.20;;
15055;SDS011;7626;42.674;23.284;2023-02-28T07:18:04;30.23;;;22.63;;
15055;SDS011;7626;42.674;23.284;2023-02-28T07:20:32;32.27;;;25.73;;
15055;SDS011;7626;42.674;23.284;2023-02-28T07:23:00;31.77;;;25.17;;
15055;SDS011;7626;42.674;23.284;2023-02-28T07:25:27;36.10;;;27.27;;
15055;SDS011;7626;42.674;23.284;2023-02-28T07:27:56;38.60;;;28.73;;
15055;SDS011;7626;42.674;23.284;2023-02-28T07:30:24;38.77;;;29.60;;
15055;SDS011;7626;42.674;23.284;2023-02-28T07:32:54;42.93;;;31.50;;
15055;SDS011;7626;42.674;23.284;2023-02-28T07:35:21;40.10;;;32.37;;
15055;SDS011;7626;42.674;23.284;2023-02-28T07:37:47;44.77;;;32.00;;
15055;SDS011;7626;42.674;23.284;2023-02-28T07:40:14;44.43;;;32.23;;
15055;SDS011;7626;42.674;23.284;2023-02-28T07:42:43;39.27;;;30.40;;
15055;SDS011;7626;42.674;23.284;2023-02-28T07:45:10;42.10;;;31.40;;
15055;SDS011;7626;42.674;23.284;2023-02-28T07:47:38;38.53;;;29.67;;
15055;SDS011;7626;42.674;23.284;2023-02-28T07:50:08;41.13;;;29.43;;
15055;SDS011;7626;42.674;23.284;2023-02-28T07:52:35;37.07;;;28.20;;
15055;SDS011;7626;42.674;23.284;2023-02-28T07:55:03;36.03;;;27.27;;
15055;SDS011;7626;42.674;23.284;2023-02-28T07:57:30;35.43;;;27.10;;
15055;SDS011;7626;42.674;23.284;2023-02-28T07:59:57;36.80;;;27.73;;
15055;SDS011;7626;42.674;23.284;2023-02-28T08:02:23;36.00;;;27.40;;
15055;SDS011;7626;42.674;23.284;2023-02-28T08:04:51;37.90;;;29.70;;
15055;SDS011;7626;42.674;23.284;2023-02-28T08:07:21;45.73;;;31.40;;
15055;SDS011;7626;42.674;23.284;2023-02-28T08:09:48;38.73;;;30.30;;
15055;SDS011;7626;42.674;23.284;2023-02-28T08:12:15;43.63;;;32.27;;
15055;SDS011;7626;42.674;23.284;2023-02-28T08:14:42;44.13;;;32.67;;
15055;SDS011;7626;42.674;23.284;2023-02-28T08:17:10;39.60;;;31.07;;
15055;SDS011;7626;42.674;23.284;2023-02-28T08:19:38;43.43;;;31.30;;
15055;SDS011;7626;42.674;23.284;2023-02-28T08:22:06;35.13;;;29.27;;
15055;SDS011;7626;42.674;23.284;2023-02-28T08:24:38;38.27;;;31.03;;
15055;SDS011;7626;42.674;23.284;2023-02-28T08:27:06;41.00;;;30.77;;
15055;SDS011;7626;42.674;23.284;2023-02-28T08:29:36;40.40;;;29.50;;
15055;SDS011;7626;42.674;23.284;2023-02-28T08:32:03;38.80;;;29.37;;
15055;SDS011;7626;42.674;23.284;2023-02-28T08:34:31;38.57;;;29.27;;
15055;SDS011;7626;42.674;23.284;2023-02-28T08:37:01;37.00;;;27.90;;
15055;SDS011;7626;42.674;23.284;2023-02-28T08:39:29;38.33;;;28.60;;
15055;SDS011;7626;42.674;23.284;2023-02-28T08:42:04;38.57;;;28.33;;
15055;SDS011;7626;42.674;23.284;2023-02-28T08:44:32;40.03;;;29.37;;
15055;SDS011;7626;42.674;23.284;2023-02-28T08:47:00;42.00;;;28.60;;
15055;SDS011;7626;42.674;23.284;2023-02-28T08:49:28;41.50;;;29.27;;
15055;SDS011;7626;42.674;23.284;2023-02-28T08:51:55;39.87;;;29.70;;
15055;SDS011;7626;42.674;23.284;2023-02-28T08:54:23;39.20;;;29.10;;
15055;SDS011;7626;42.674;23.284;2023-02-28T08:56:51;40.73;;;30.23;;
15055;SDS011;7626;42.674;23.284;2023-02-28T08:59:20;41.10;;;28.97;;
15055;SDS011;7626;42.674;23.284;2023-02-28T09:01:50;39.70;;;28.53;;
15055;SDS011;7626;42.674;23.284;2023-02-28T09:04:21;35.70;;;27.23;;
15055;SDS011;7626;42.674;23.284;2023-02-28T09:06:48;36.83;;;26.87;;
15055;SDS011;7626;42.674;23.284;2023-02-28T09:09:15;41.73;;;29.93;;
15055;SDS011;7626;42.674;23.284;2023-02-28T09:11:43;37.93;;;27.30;;
15055;SDS011;7626;42.674;23.284;2023-02-28T09:14:09;40.83;;;27.73;;
15055;SDS011;7626;42.674;23.284;2023-02-28T09:16:38;41.63;;;28.30;;
15055;SDS011;7626;42.674;23.284;2023-02-28T09:19:06;42.70;;;27.83;;
15055;SDS011;7626;42.674;23.284;2023-02-28T09:21:34;40.50;;;26.80;;
15055;SDS011;7626;42.674;23.284;2023-02-28T09:24:02;39.70;;;27.50;;
15055;SDS011;7626;42.674;23.284;2023-02-28T09:26:30;41.13;;;27.27;;
15055;SDS011;7626;42.674;23.284;2023-02-28T09:28:56;41.57;;;27.83;;
15055;SDS011;7626;42.674;23.284;2023-02-28T09:31:24;41.83;;;27.50;;
15055;SDS011;7626;42.674;23.284;2023-02-28T09:33:56;40.53;;;27.80;;
15055;SDS011;7626;42.674;23.284;2023-02-28T09:36:23;41.50;;;27.10;;
15055;SDS011;7626;42.674;23.284;2023-02-28T09:38:51;37.47;;;26.37;;
15055;SDS011;7626;42.674;23.284;2023-02-28T09:41:19;38.93;;;26.77;;
15055;SDS011;7626;42.674;23.284;2023-02-28T09:43:49;37.27;;;27.83;;
15055;SDS011;7626;42.674;23.284;2023-02-28T09:49:05;38.63;;;28.07;;
15055;SDS011;7626;42.674;23.284;2023-02-28T09:51:39;40.97;;;28.23;;
15055;SDS011;7626;42.674;23.284;2023-02-28T09:54:08;44.37;;;30.47;;
15055;SDS011;7626;42.674;23.284;2023-02-28T09:56:37;46.93;;;35.00;;
15055;SDS011;7626;42.674;23.284;2023-02-28T09:59:06;53.03;;;37.27;;
15055;SDS011;7626;42.674;23.284;2023-02-28T10:01:39;52.57;;;37.13;;
15055;SDS011;7626;42.674;23.284;2023-02-28T10:04:10;57.27;;;36.73;;
15055;SDS011;7626;42.674;23.284;2023-02-28T10:06:39;52.87;;;35.83;;
15055;SDS011;7626;42.674;23.284;2023-02-28T10:09:08;50.43;;;35.23;;
15055;SDS011;7626;42.674;23.284;2023-02-28T10:11:38;48.90;;;34.93;;
15055;SDS011;7626;42.674;23.284;2023-02-28T10:14:06;48.43;;;35.47;;
15055;SDS011;7626;42.674;23.284;2023-02-28T10:16:39;48.73;;;34.90;;
15055;SDS011;7626;42.674;23.284;2023-02-28T10:19:11;51.37;;;35.47;;
15055;SDS011;7626;42.674;23.284;2023-02-28T10:21:42;50.90;;;35.83;;
15055;SDS011;7626;42.674;23.284;2023-02-28T10:24:13;49.60;;;36.90;;
15055;SDS011;7626;42.674;23.284;2023-02-28T10:26:43;48.03;;;36.97;;
15055;SDS011;7626;42.674;23.284;2023-02-28T10:29:11;47.77;;;35.77;;
15055;SDS011;7626;42.674;23.284;2023-02-28T10:31:39;43.23;;;34.60;;
15055;SDS011;7626;42.674;23.284;2023-02-28T10:34:05;52.53;;;38.67;;
15055;SDS011;7626;42.674;23.284;2023-02-28T10:36:38;49.93;;;35.90;;
15055;SDS011;7626;42.674;23.284;2023-02-28T10:41:50;38.70;;;28.40;;
15055;SDS011;7626;42.674;23.284;2023-02-28T10:44:19;37.20;;;27.50;;
15055;SDS011;7626;42.674;23.284;2023-02-28T10:46:46;34.13;;;24.93;;
15055;SDS011;7626;42.674;23.284;2023-02-28T10:49:15;32.17;;;18.47;;
15055;SDS011;7626;42.674;23.284;2023-02-28T10:51:46;27.03;;;18.17;;
15055;SDS011;7626;42.674;23.284;2023-02-28T10:54:19;24.20;;;16.17;;
15055;SDS011;7626;42.674;23.284;2023-02-28T10:59:33;18.13;;;13.10;;
15055;SDS011;7626;42.674;23.284;2023-02-28T11:02:00;17.07;;;12.60;;
15055;SDS011;7626;42.674;23.284;2023-02-28T11:04:35;18.67;;;12.80;;
15055;SDS011;7626;42.674;23.284;2023-02-28T11:07:11;18.77;;;12.70;;
15055;SDS011;7626;42.674;23.284;2023-02-28T11:09:45;18.20;;;12.13;;
15055;SDS011;7626;42.674;23.284;2023-02-28T11:12:19;20.23;;;13.03;;
15055;SDS011;7626;42.674;23.284;2023-02-28T11:14:49;19.17;;;12.53;;
15055;SDS011;7626;42.674;23.284;2023-02-28T11:17:19;21.80;;;13.10;;
15055;SDS011;7626;42.674;23.284;2023-02-28T11:19:49;16.90;;;12.43;;
15055;SDS011;7626;42.674;23.284;2023-02-28T11:22:19;19.13;;;13.00;;
15055;SDS011;7626;42.674;23.284;2023-02-28T11:24:49;19.67;;;12.80;;
15055;SDS011;7626;42.674;23.284;2023-02-28T11:27:40;17.97;;;12.80;;
15055;SDS011;7626;42.674;23.284;2023-02-28T11:30:23;16.83;;;12.03;;
15055;SDS011;7626;42.674;23.284;2023-02-28T11:32:50;17.77;;;12.67;;
15055;SDS011;7626;42.674;23.284;2023-02-28T11:35:21;18.13;;;12.43;;
15055;SDS011;7626;42.674;23.284;2023-02-28T11:37:51;19.07;;;12.47;;
15055;SDS011;7626;42.674;23.284;2023-02-28T11:40:21;18.07;;;13.00;;
15055;SDS011;7626;42.674;23.284;2023-02-28T11:42:57;19.97;;;13.90;;
15055;SDS011;7626;42.674;23.284;2023-02-28T11:45:36;19.03;;;13.50;;
15055;SDS011;7626;42.674;23.284;2023-02-28T11:48:09;18.37;;;13.37;;
15055;SDS011;7626;42.674;23.284;2023-02-28T11:50:42;17.43;;;12.77;;
15055;SDS011;7626;42.674;23.284;2023-02-28T11:53:16;19.70;;;13.13;;
15055;SDS011;7626;42.674;23.284;2023-02-28T11:55:48;19.73;;;13.47;;
15055;SDS011;7626;42.674;23.284;2023-02-28T12:01:13;18.47;;;13.70;;
15055;SDS011;7626;42.674;23.284;2023-02-28T12:03:48;19.97;;;12.93;;
15055;SDS011;7626;42.674;23.284;2023-02-28T12:06:20;19.77;;;13.57;;
15055;SDS011;7626;42.674;23.284;2023-02-28T12:08:51;18.57;;;13.67;;
15055;SDS011;7626;42.674;23.284;2023-02-28T12:11:25;21.13;;;13.43;;
15055;SDS011;7626;42.674;23.284;2023-02-28T12:14:03;18.53;;;14.17;;
15055;SDS011;7626;42.674;23.284;2023-02-28T12:16:48;21.23;;;14.60;;
15055;SDS011;7626;42.674;23.284;2023-02-28T12:19:21;19.70;;;13.90;;
15055;SDS011;7626;42.674;23.284;2023-02-28T12:21:55;25.00;;;15.70;;
15055;SDS011;7626;42.674;23.284;2023-02-28T12:27:20;20.60;;;13.00;;
15055;SDS011;7626;42.674;23.284;2023-02-28T12:29:49;17.63;;;13.33;;
15055;SDS011;7626;42.674;23.284;2023-02-28T12:32:20;17.33;;;13.60;;
15055;SDS011;7626;42.674;23.284;2023-02-28T12:34:51;20.10;;;13.90;;
15055;SDS011;7626;42.674;23.284;2023-02-28T12:37:19;19.40;;;13.87;;
15055;SDS011;7626;42.674;23.284;2023-02-28T12:39:51;17.30;;;13.30;;
15055;SDS011;7626;42.674;23.284;2023-02-28T12:42:24;16.73;;;13.30;;
15055;SDS011;7626;42.674;23.284;2023-02-28T12:44:53;19.40;;;13.33;;
15055;SDS011;7626;42.674;23.284;2023-02-28T12:47:23;17.53;;;13.00;;
15055;SDS011;7626;42.674;23.284;2023-02-28T12:49:52;18.90;;;13.23;;
15055;SDS011;7626;42.674;23.284;2023-02-28T12:52:22;19.43;;;13.20;;
15055;SDS011;7626;42.674;23.284;2023-02-28T12:54:52;21.53;;;13.70;;
15055;SDS011;7626;42.674;23.284;2023-02-28T12:57:22;18.50;;;13.00;;
15055;SDS011;7626;42.674;23.284;2023-02-28T12:59:57;20.50;;;13.07;;
15055;SDS011;7626;42.674;23.284;2023-02-28T13:02:44;20.73;;;13.43;;
15055;SDS011;7626;42.674;23.284;2023-02-28T13:05:31;16.17;;;12.27;;
15055;SDS011;7626;42.674;23.284;2023-02-28T13:08:05;18.33;;;12.97;;
15055;SDS011;7626;42.674;23.284;2023-02-28T13:10:42;20.33;;;13.07;;
15055;SDS011;7626;42.674;23.284;2023-02-28T13:13:13;18.93;;;12.10;;
15055;SDS011;7626;42.674;23.284;2023-02-28T13:15:43;19.43;;;12.50;;
15055;SDS011;7626;42.674;23.284;2023-02-28T13:18:29;19.57;;;12.20;;
15055;SDS011;7626;42.674;23.284;2023-02-28T13:20:56;18.73;;;13.00;;
15055;SDS011;7626;42.674;23.284;2023-02-28T13:23:40;19.03;;;13.13;;
15055;SDS011;7626;42.674;23.284;2023-02-28T13:26:23;18.20;;;12.40;;
15055;SDS011;7626;42.674;23.284;2023-02-28T13:34:20;19.87;;;12.17;;
15055;SDS011;7626;42.674;23.284;2023-02-28T13:36:48;19.60;;;13.17;;
15055;SDS011;7626;42.674;23.284;2023-02-28T13:42:14;19.00;;;12.33;;
15055;SDS011;7626;42.674;23.284;2023-02-28T13:47:33;18.23;;;11.93;;
15055;SDS011;7626;42.674;23.284;2023-02-28T13:52:54;17.80;;;10.80;;
15055;SDS011;7626;42.674;23.284;2023-02-28T13:55:28;21.13;;;10.97;;
15055;SDS011;7626;42.674;23.284;2023-02-28T14:00:44;17.13;;;11.23;;
15055;SDS011;7626;42.674;23.284;2023-02-28T14:03:18;17.13;;;10.73;;
15055;SDS011;7626;42.674;23.284;2023-02-28T14:05:51;17.93;;;10.40;;
15055;SDS011;7626;42.674;23.284;2023-02-28T14:08:37;14.40;;;9.60;;
15055;SDS011;7626;42.674;23.284;2023-02-28T14:11:06;15.17;;;10.03;;
15055;SDS011;7626;42.674;23.284;2023-02-28T14:13:38;16.80;;;10.17;;
15055;SDS011;7626;42.674;23.284;2023-02-28T14:16:09;19.30;;;11.03;;
15055;SDS011;7626;42.674;23.284;2023-02-28T14:18:38;20.73;;;10.60;;
15055;SDS011;7626;42.674;23.284;2023-02-28T14:21:19;16.40;;;10.53;;
15055;SDS011;7626;42.674;23.284;2023-02-28T14:26:42;15.90;;;10.67;;
15055;SDS011;7626;42.674;23.284;2023-02-28T14:29:17;15.97;;;11.10;;
15055;SDS011;7626;42.674;23.284;2023-02-28T14:31:49;15.83;;;11.43;;
15055;SDS011;7626;42.674;23.284;2023-02-28T14:34:25;18.30;;;10.93;;
15055;SDS011;7626;42.674;23.284;2023-02-28T14:36:53;15.70;;;10.87;;
15055;SDS011;7626;42.674;23.284;2023-02-28T14:39:24;19.07;;;11.60;;
15055;SDS011;7626;42.674;23.284;2023-02-28T14:41:53;16.40;;;10.77;;
15055;SDS011;7626;42.674;23.284;2023-02-28T14:44:21;16.33;;;10.40;;
15055;SDS011;7626;42.674;23.284;2023-02-28T14:46:51;17.97;;;11.57;;
15055;SDS011;7626;42.674;23.284;2023-02-28T14:49:19;16.50;;;10.93;;
15055;SDS011;7626;42.674;23.284;2023-02-28T14:51:48;22.33;;;11.90;;
15055;SDS011;7626;42.674;23.284;2023-02-28T14:54:16;16.63;;;11.40;;
15055;SDS011;7626;42.674;23.284;2023-02-28T14:56:48;15.80;;;10.40;;
15055;SDS011;7626;42.674;23.284;2023-02-28T14:59:25;14.27;;;10.67;;
15055;SDS011;7626;42.674;23.284;2023-02-28T15:04:36;14.57;;;9.57;;
15055;SDS011;7626;42.674;23.284;2023-02-28T15:07:09;15.53;;;10.37;;
15055;SDS011;7626;42.674;23.284;2023-02-28T15:09:36;15.73;;;10.17;;
15055;SDS011;7626;42.674;23.284;2023-02-28T15:12:04;17.00;;;10.20;;
15055;SDS011;7626;42.674;23.284;2023-02-28T15:14:35;16.23;;;10.40;;
15055;SDS011;7626;42.674;23.284;2023-02-28T15:17:06;15.23;;;10.87;;
15055;SDS011;7626;42.674;23.284;2023-02-28T15:19:36;19.30;;;10.60;;
15055;SDS011;7626;42.674;23.284;2023-02-28T15:22:07;15.00;;;10.03;;